createdAt,value
2018-12-04T00:02:10.870Z,2.58
2018-12-04T00:04:39.931Z,2.68
2018-12-04T00:07:08.983Z,2.91
2018-12-04T00:09:38.085Z,2.67
2018-12-04T00:12:07.247Z,2.77
2018-12-04T00:14:36.379Z,2.80
2018-12-04T00:17:05.499Z,2.89
2018-12-04T00:19:34.628Z,2.80
2018-12-04T00:22:03.765Z,2.82
2018-12-04T00:24:32.856Z,2.97
2018-12-04T00:27:01.987Z,2.96
2018-12-04T00:29:31.092Z,3.20
2018-12-04T00:32:00.316Z,3.08
2018-12-04T00:34:29.555Z,2.93
2018-12-04T00:36:58.602Z,2.94
2018-12-04T00:39:27.668Z,2.70
2018-12-04T00:41:56.803Z,2.69
2018-12-04T00:44:26.022Z,2.61
2018-12-04T00:46:55.141Z,2.76
2018-12-04T00:49:24.282Z,2.71
2018-12-04T00:51:53.486Z,2.73
2018-12-04T00:54:22.574Z,2.72
2018-12-04T00:56:51.823Z,2.49
2018-12-04T00:59:20.931Z,2.45
2018-12-04T01:01:50.136Z,2.36
2018-12-04T01:04:19.202Z,2.56
2018-12-04T01:06:48.298Z,2.53
2018-12-04T01:09:17.464Z,2.54
2018-12-04T01:11:46.611Z,2.57
2018-12-04T01:14:15.704Z,2.60
2018-12-04T01:16:44.807Z,2.53
2018-12-04T01:19:13.948Z,2.59
2018-12-04T01:21:43.001Z,2.59
2018-12-04T01:24:12.160Z,2.52
2018-12-04T01:26:41.231Z,2.83
2018-12-04T01:29:10.373Z,2.90
2018-12-04T01:31:39.478Z,3.11
2018-12-04T01:34:08.651Z,3.01
2018-12-04T01:36:37.780Z,2.89
2018-12-04T01:39:08.148Z,2.95
2018-12-04T01:41:37.308Z,2.87
2018-12-04T01:44:06.482Z,3.50
2018-12-04T01:46:35.517Z,3.33
2018-12-04T01:49:04.665Z,3.42
2018-12-04T01:51:33.719Z,3.11
2018-12-04T01:54:02.805Z,2.93
2018-12-04T01:56:31.997Z,3.18
2018-12-04T01:59:01.246Z,3.00
2018-12-04T02:01:30.327Z,2.62
2018-12-04T02:03:59.532Z,2.42
2018-12-04T02:06:28.724Z,2.42
2018-12-04T02:08:57.825Z,2.19
2018-12-04T02:11:26.837Z,2.15
2018-12-04T02:13:55.920Z,2.14
2018-12-04T02:16:25.110Z,2.23
2018-12-04T02:18:54.303Z,2.29
2018-12-04T02:21:23.404Z,2.16
2018-12-04T02:23:52.735Z,2.18
2018-12-04T02:26:21.795Z,2.09
2018-12-04T02:28:51.022Z,2.35
2018-12-04T02:31:20.127Z,2.58
2018-12-04T02:33:49.210Z,2.64
2018-12-04T02:36:18.256Z,2.68
2018-12-04T02:38:47.591Z,2.67
2018-12-04T02:41:16.944Z,2.96
2018-12-04T02:43:46.059Z,2.99
2018-12-04T02:46:15.693Z,2.91
2018-12-04T02:48:44.825Z,2.97
2018-12-04T02:51:14.064Z,2.96
2018-12-04T02:53:43.124Z,2.92
2018-12-04T02:56:12.152Z,2.82
2018-12-04T02:58:41.152Z,2.86
2018-12-04T03:01:10.340Z,2.66
2018-12-04T03:03:39.450Z,2.59
2018-12-04T03:06:08.536Z,2.49
2018-12-04T03:08:38.259Z,2.46
2018-12-04T03:11:07.305Z,2.60
2018-12-04T03:13:36.473Z,2.60
2018-12-04T03:16:06.015Z,2.62
2018-12-04T03:18:35.200Z,2.56
2018-12-04T03:21:04.500Z,2.74
2018-12-04T03:23:33.583Z,3.02
2018-12-04T03:26:02.620Z,3.50
2018-12-04T03:28:31.657Z,3.83
2018-12-04T03:31:00.732Z,3.48
2018-12-04T03:33:37.472Z,3.92
2018-12-04T03:36:07.156Z,3.29
2018-12-04T03:38:36.431Z,2.98
2018-12-04T03:41:05.592Z,2.91
2018-12-04T03:43:34.703Z,3.03
2018-12-04T03:46:03.720Z,3.34
2018-12-04T03:48:33.084Z,3.18
2018-12-04T03:51:02.617Z,3.62
2018-12-04T03:53:31.708Z,2.94
2018-12-04T03:56:00.868Z,2.65
2018-12-04T03:58:29.978Z,2.30
2018-12-04T04:00:59.205Z,2.08
2018-12-04T04:03:29.132Z,2.34
2018-12-04T04:05:58.191Z,2.74
2018-12-04T04:08:27.308Z,3.07
2018-12-04T04:10:56.343Z,3.13
2018-12-04T04:13:25.684Z,3.12
2018-12-04T04:15:54.716Z,3.60
2018-12-04T04:18:23.739Z,2.59
2018-12-04T04:20:52.817Z,2.18
2018-12-04T04:23:22.044Z,1.75
2018-12-04T04:25:51.127Z,1.54
2018-12-04T04:28:20.287Z,1.49
2018-12-04T04:30:49.284Z,1.48
2018-12-04T04:33:18.336Z,1.58
2018-12-04T04:35:48.049Z,1.57
2018-12-04T04:38:17.132Z,1.82
2018-12-04T04:40:46.190Z,1.75
2018-12-04T04:43:15.318Z,1.99
2018-12-04T04:45:44.450Z,2.13
2018-12-04T04:48:13.576Z,2.28
2018-12-04T04:50:43.062Z,2.17
2018-12-04T04:53:12.178Z,2.20
2018-12-04T04:55:41.231Z,2.13
2018-12-04T04:58:10.329Z,2.02
2018-12-04T05:00:39.465Z,1.83
2018-12-04T05:03:08.852Z,1.82
2018-12-04T05:05:38.581Z,1.70
2018-12-04T05:08:07.801Z,1.72
2018-12-04T05:10:36.919Z,1.68
2018-12-04T05:13:06.162Z,1.62
2018-12-04T05:15:35.461Z,1.90
2018-12-04T05:18:04.599Z,1.95
2018-12-04T05:20:34.189Z,1.77
2018-12-04T05:23:03.373Z,1.73
2018-12-04T05:25:32.728Z,1.64
2018-12-04T05:28:01.788Z,1.63
2018-12-04T05:30:30.824Z,1.52
2018-12-04T05:32:59.852Z,1.58
2018-12-04T05:35:29.375Z,1.84
2018-12-04T05:37:58.566Z,1.76
2018-12-04T05:40:27.589Z,1.79
2018-12-04T05:42:56.684Z,1.60
2018-12-04T05:45:25.783Z,1.51
2018-12-04T05:47:55.943Z,1.60
2018-12-04T05:50:25.071Z,1.74
2018-12-04T05:53:05.017Z,1.87
2018-12-04T05:55:34.615Z,1.82
2018-12-04T05:58:04.017Z,2.30
2018-12-04T06:00:33.087Z,3.06
2018-12-04T06:03:02.176Z,3.52
2018-12-04T06:05:31.374Z,4.13
2018-12-04T06:08:00.419Z,3.83
2018-12-04T06:10:29.540Z,3.52
2018-12-04T06:12:58.648Z,3.99
2018-12-04T06:15:27.673Z,3.93
2018-12-04T06:17:57.288Z,2.97
2018-12-04T06:20:26.502Z,2.55
2018-12-04T06:22:56.587Z,2.21
2018-12-04T06:25:26.257Z,2.08
2018-12-04T06:27:55.366Z,2.17
2018-12-04T06:30:24.408Z,2.23
2018-12-04T06:32:53.806Z,2.40
2018-12-04T06:35:23.045Z,2.43
2018-12-04T06:40:46.277Z,2.42
2018-12-04T06:43:15.704Z,2.80
2018-12-04T06:45:44.748Z,3.54
2018-12-04T06:51:00.455Z,4.27
2018-12-04T06:53:29.640Z,4.36
2018-12-04T06:55:59.024Z,3.65
2018-12-04T06:58:28.165Z,3.88
2018-12-04T07:00:58.293Z,4.50
2018-12-04T07:03:27.646Z,4.84
2018-12-04T07:05:57.324Z,4.87
2018-12-04T07:08:27.001Z,4.18
2018-12-04T07:10:57.293Z,4.20
2018-12-04T07:13:27.079Z,3.93
2018-12-04T07:15:57.213Z,3.91
2018-12-04T07:18:26.833Z,3.97
2018-12-04T07:20:56.316Z,4.54
2018-12-04T07:23:25.559Z,4.53
2018-12-04T07:25:54.658Z,5.29
2018-12-04T07:28:23.670Z,5.89
2018-12-04T07:30:52.723Z,5.05
2018-12-04T07:33:27.539Z,4.32
2018-12-04T07:35:56.668Z,4.67
2018-12-04T07:38:25.689Z,4.88
2018-12-04T07:40:54.866Z,5.46
2018-12-04T07:43:23.983Z,5.59
2018-12-04T07:45:53.318Z,6.07
2018-12-04T07:48:22.470Z,6.48
2018-12-04T07:50:51.569Z,6.70
2018-12-04T07:53:20.825Z,6.79
2018-12-04T07:55:50.069Z,6.95
2018-12-04T07:58:19.294Z,7.01
2018-12-04T08:00:48.349Z,6.62
2018-12-04T08:03:17.344Z,7.18
2018-12-04T08:05:46.389Z,7.11
2018-12-04T08:08:15.468Z,7.05
2018-12-04T08:10:44.516Z,7.10
2018-12-04T08:13:13.561Z,7.09
2018-12-04T08:15:42.644Z,7.06
2018-12-04T08:18:11.827Z,7.05
2018-12-04T08:20:41.111Z,6.97
2018-12-04T08:23:10.460Z,7.00
2018-12-04T08:25:39.778Z,7.03
2018-12-04T08:28:09.252Z,6.93
2018-12-04T08:30:38.690Z,7.46
2018-12-04T08:33:08.274Z,7.51
2018-12-04T08:35:37.677Z,8.01
2018-12-04T08:38:07.215Z,8.43
2018-12-04T08:40:36.447Z,8.09
2018-12-04T08:43:05.863Z,7.71
2018-12-04T08:45:35.412Z,7.59
2018-12-04T08:48:05.002Z,7.87
2018-12-04T08:50:34.383Z,7.58
2018-12-04T08:53:03.935Z,7.44
2018-12-04T08:55:33.338Z,7.14
2018-12-04T08:58:04.261Z,6.95
2018-12-04T09:00:33.590Z,6.66
2018-12-04T09:03:05.438Z,6.93
2018-12-04T09:05:35.864Z,7.28
2018-12-04T09:08:09.294Z,7.10
2018-12-04T09:10:35.577Z,7.12
2018-12-04T09:13:05.743Z,6.76
2018-12-04T09:15:35.758Z,7.06
2018-12-04T09:18:05.370Z,6.72
2018-12-04T09:20:34.685Z,6.36
2018-12-04T09:23:04.610Z,6.95
2018-12-04T09:25:34.388Z,6.82
2018-12-04T09:28:03.763Z,7.19
2018-12-04T09:30:33.522Z,7.57
2018-12-04T09:33:02.677Z,7.24
2018-12-04T09:35:32.137Z,7.24
2018-12-04T09:38:02.167Z,7.14
2018-12-04T09:40:32.094Z,7.14
2018-12-04T09:43:04.189Z,7.16
2018-12-04T09:45:41.319Z,7.36
2018-12-04T09:48:10.635Z,7.31
2018-12-04T09:50:40.125Z,7.38
2018-12-04T09:53:09.358Z,7.64
2018-12-04T09:55:38.615Z,7.44
2018-12-04T09:58:07.776Z,7.50
2018-12-04T10:00:36.926Z,7.82
2018-12-04T10:03:06.827Z,8.16
2018-12-04T10:05:36.167Z,8.38
2018-12-04T10:08:05.889Z,8.73
2018-12-04T10:10:35.179Z,7.74
2018-12-04T10:13:04.819Z,8.69
2018-12-04T10:15:34.254Z,8.77
2018-12-04T10:18:03.611Z,8.94
2018-12-04T10:20:32.836Z,9.08
2018-12-04T10:23:02.155Z,9.08
2018-12-04T10:25:31.602Z,9.25
2018-12-04T10:28:01.102Z,8.91
2018-12-04T10:30:30.398Z,8.71
2018-12-04T10:32:59.997Z,8.61
2018-12-04T10:35:29.523Z,8.73
2018-12-04T10:38:00.486Z,8.64
2018-12-04T10:40:29.049Z,8.39
2018-12-04T10:42:58.839Z,8.22
2018-12-04T10:45:28.612Z,8.00
2018-12-04T10:47:57.932Z,7.37
2018-12-04T10:50:27.651Z,8.08
2018-12-04T10:52:57.278Z,8.59
2018-12-04T10:55:26.573Z,8.95
2018-12-04T10:57:56.171Z,9.06
2018-12-04T11:00:32.511Z,8.94
2018-12-04T11:03:06.848Z,9.34
2018-12-04T11:05:36.508Z,9.35
2018-12-04T11:08:05.837Z,10.06
2018-12-04T11:10:35.112Z,9.82
2018-12-04T11:13:04.527Z,9.16
2018-12-04T11:15:33.943Z,9.54
2018-12-04T11:18:02.963Z,9.94
2018-12-04T11:20:32.140Z,10.07
2018-12-04T11:23:01.220Z,10.34
2018-12-04T11:25:30.436Z,10.03
2018-12-04T11:27:59.682Z,10.14
2018-12-04T11:30:28.939Z,10.35
2018-12-04T11:32:58.139Z,10.16
2018-12-04T11:35:27.432Z,10.56
2018-12-04T11:37:56.935Z,10.43
2018-12-04T11:40:26.334Z,10.69
2018-12-04T11:42:55.793Z,11.25
2018-12-04T11:45:25.328Z,10.44
2018-12-04T11:47:55.986Z,10.93
2018-12-04T11:50:25.727Z,10.35
2018-12-04T11:52:55.437Z,10.58
2018-12-04T11:55:24.716Z,11.01
2018-12-04T11:57:54.040Z,10.73
2018-12-04T12:00:37.364Z,10.94
2018-12-04T12:03:06.877Z,10.95
2018-12-04T12:05:37.659Z,10.77
2018-12-04T12:08:07.370Z,10.83
2018-12-04T12:10:37.349Z,10.85
2018-12-04T12:13:07.362Z,11.06
2018-12-04T12:15:37.273Z,11.28
2018-12-04T12:18:06.460Z,11.37
2018-12-04T12:20:36.093Z,11.56
2018-12-04T12:23:06.060Z,11.30
2018-12-04T12:25:35.901Z,11.31
2018-12-04T12:28:05.643Z,10.96
2018-12-04T12:30:35.993Z,10.66
2018-12-04T12:33:06.869Z,11.12
2018-12-04T12:35:36.602Z,11.47
2018-12-04T12:38:06.522Z,11.42
2018-12-04T12:40:36.702Z,10.39
2018-12-04T12:43:06.591Z,10.78
2018-12-04T12:45:36.455Z,10.46
2018-12-04T12:48:07.127Z,11.04
2018-12-04T12:50:37.023Z,10.86
2018-12-04T12:53:06.887Z,11.09
2018-12-04T12:55:36.511Z,11.02
2018-12-04T12:58:06.966Z,10.75
2018-12-04T13:00:36.863Z,9.96
2018-12-04T13:03:07.672Z,9.83
2018-12-04T13:05:37.374Z,9.76
2018-12-04T13:08:06.516Z,10.11
2018-12-04T13:10:36.299Z,10.01
2018-12-04T13:13:06.793Z,10.13
2018-12-04T13:15:36.748Z,9.92
2018-12-04T13:18:06.280Z,9.88
2018-12-04T13:20:36.162Z,9.74
2018-12-04T13:23:05.483Z,9.78
2018-12-04T13:25:34.580Z,10.31
2018-12-04T13:28:03.609Z,10.82
2018-12-04T13:30:32.802Z,11.36
2018-12-04T13:33:01.915Z,11.06
2018-12-04T13:35:30.988Z,11.33
2018-12-04T13:38:00.040Z,11.46
2018-12-04T13:40:29.284Z,11.69
2018-12-04T13:42:58.448Z,11.80
2018-12-04T13:45:27.481Z,11.80
2018-12-04T13:48:00.707Z,11.83
2018-12-04T13:50:25.754Z,11.13
2018-12-04T13:52:54.853Z,11.06
2018-12-04T13:55:24.020Z,11.02
2018-12-04T13:57:53.283Z,11.33
2018-12-04T14:00:22.519Z,11.08
2018-12-04T14:02:51.777Z,11.03
2018-12-04T14:05:21.018Z,10.78
2018-12-04T14:07:50.286Z,10.74
2018-12-04T14:10:19.656Z,11.01
2018-12-04T14:12:48.867Z,10.74
2018-12-04T14:15:18.127Z,10.55
2018-12-04T14:17:47.525Z,10.65
2018-12-04T14:20:16.810Z,10.65
2018-12-04T14:22:46.084Z,10.68
2018-12-04T14:25:15.396Z,10.25
2018-12-04T14:27:48.946Z,10.58
2018-12-04T14:30:14.260Z,10.48
2018-12-04T14:32:43.890Z,9.95
2018-12-04T14:35:14.131Z,9.57
2018-12-04T14:37:43.582Z,9.41
2018-12-04T14:40:13.172Z,9.44
2018-12-04T14:42:42.662Z,9.16
2018-12-04T14:45:12.404Z,8.95
2018-12-04T14:47:42.298Z,8.69
2018-12-04T14:50:12.155Z,8.48
2018-12-04T14:52:42.600Z,8.41
2018-12-04T14:55:12.280Z,8.22
2018-12-04T14:57:42.124Z,8.16
2018-12-04T15:00:12.732Z,8.22
2018-12-04T15:02:42.549Z,8.15
2018-12-04T15:05:12.479Z,8.17
2018-12-04T15:07:41.903Z,8.01
2018-12-04T15:10:12.242Z,7.96
2018-12-04T15:12:41.756Z,7.76
2018-12-04T15:15:11.160Z,7.88
2018-12-04T15:17:40.921Z,7.97
2018-12-04T15:20:10.592Z,7.94
2018-12-04T15:22:40.008Z,8.00
2018-12-04T15:25:09.524Z,7.94
2018-12-04T15:27:38.880Z,8.10
2018-12-04T15:30:08.556Z,7.84
2018-12-04T15:32:37.910Z,7.91
2018-12-04T15:35:07.639Z,8.05
2018-12-04T15:37:37.153Z,8.16
2018-12-04T15:40:07.714Z,7.97
2018-12-04T15:42:37.177Z,7.87
2018-12-04T15:45:07.360Z,7.67
2018-12-04T15:47:36.919Z,7.70
2018-12-04T15:50:07.506Z,7.64
2018-12-04T15:52:37.012Z,7.45
2018-12-04T15:55:06.955Z,7.34
2018-12-04T15:57:36.526Z,7.36
2018-12-04T16:00:07.905Z,7.43
2018-12-04T16:02:37.242Z,7.28
2018-12-04T16:05:08.759Z,7.23
2018-12-04T16:07:38.550Z,7.13
2018-12-04T16:10:12.214Z,6.99
2018-12-04T16:12:42.196Z,7.02
2018-12-04T16:15:12.619Z,7.14
2018-12-04T16:17:42.803Z,7.15
2018-12-04T16:20:13.047Z,7.12
2018-12-04T16:22:43.464Z,7.16
2018-12-04T16:25:13.201Z,7.03
2018-12-04T16:27:44.156Z,7.32
2018-12-04T16:30:14.131Z,6.84
2018-12-04T16:32:43.624Z,7.12
2018-12-04T16:35:13.118Z,7.13
2018-12-04T16:37:43.337Z,7.13
2018-12-04T16:40:13.225Z,7.33
2018-12-04T16:42:43.622Z,7.28
2018-12-04T16:45:13.655Z,7.35
2018-12-04T16:47:43.625Z,7.37
2018-12-04T16:50:14.117Z,7.20
2018-12-04T16:52:44.282Z,7.25
2018-12-04T16:55:14.627Z,7.19
2018-12-04T16:57:44.532Z,7.01
2018-12-04T17:00:14.753Z,6.94
2018-12-04T17:02:44.472Z,6.95
2018-12-04T17:05:14.286Z,7.09
2018-12-04T17:07:44.517Z,7.00
2018-12-04T17:10:14.700Z,7.11
2018-12-04T17:12:44.528Z,7.37
2018-12-04T17:15:14.335Z,7.36
2018-12-04T17:17:44.076Z,7.62
2018-12-04T17:20:13.818Z,7.47
2018-12-04T17:22:43.425Z,7.46
2018-12-04T17:25:13.121Z,7.41
2018-12-04T17:27:42.939Z,7.48
2018-12-04T17:30:12.869Z,7.19
2018-12-04T17:32:42.517Z,7.04
2018-12-04T17:35:11.962Z,7.20
2018-12-04T17:37:41.497Z,6.91
2018-12-04T17:40:11.018Z,7.07
2018-12-04T17:42:40.511Z,6.83
2018-12-04T17:45:10.605Z,6.55
2018-12-04T17:47:39.996Z,6.39
2018-12-04T17:50:10.694Z,6.44
2018-12-04T17:52:40.160Z,6.41
2018-12-04T17:55:09.765Z,6.64
2018-12-04T17:57:39.156Z,6.78
2018-12-04T18:00:09.456Z,6.94
2018-12-04T18:02:38.860Z,6.79
2018-12-04T18:05:08.350Z,6.74
2018-12-04T18:07:37.927Z,6.70
2018-12-04T18:10:08.760Z,7.12
2018-12-04T18:12:38.475Z,6.99
2018-12-04T18:15:08.985Z,6.98
2018-12-04T18:17:38.572Z,6.68
2018-12-04T18:20:08.380Z,6.70
2018-12-04T18:22:38.131Z,6.76
2018-12-04T18:25:07.737Z,6.80
2018-12-04T18:27:37.782Z,6.82
2018-12-04T18:30:08.048Z,6.75
2018-12-04T18:32:37.706Z,6.65
2018-12-04T18:35:07.674Z,6.74
2018-12-04T18:37:37.171Z,6.61
2018-12-04T18:40:07.342Z,6.28
2018-12-04T18:42:36.848Z,6.28
2018-12-04T18:45:07.795Z,6.41
2018-12-04T18:47:37.362Z,6.46
2018-12-04T18:50:09.197Z,6.40
2018-12-04T18:52:38.758Z,6.57
2018-12-04T18:55:08.731Z,6.63
2018-12-04T18:57:38.273Z,6.37
2018-12-04T19:00:09.166Z,6.44
2018-12-04T19:02:38.508Z,6.62
2018-12-04T19:05:07.868Z,6.56
2018-12-04T19:07:37.273Z,6.71
2018-12-04T19:10:06.848Z,6.36
2018-12-04T19:12:36.167Z,7.07
2018-12-04T19:15:05.855Z,7.71
2018-12-04T19:17:35.346Z,8.19
2018-12-04T19:20:05.076Z,8.66
2018-12-04T19:22:34.462Z,7.37
2018-12-04T19:25:03.781Z,6.90
2018-12-04T19:27:33.198Z,6.48
2018-12-04T19:30:02.925Z,6.28
2018-12-04T19:32:32.300Z,6.01
2018-12-04T19:35:02.104Z,6.26
2018-12-04T19:37:31.413Z,6.21
2018-12-04T19:40:00.680Z,6.22
2018-12-04T19:42:29.829Z,6.35
2018-12-04T19:44:59.023Z,6.44
2018-12-04T19:47:28.080Z,6.57
2018-12-04T19:49:57.121Z,6.67
2018-12-04T19:52:26.502Z,6.90
2018-12-04T19:54:55.644Z,7.13
2018-12-04T19:57:24.680Z,7.34
2018-12-04T19:59:53.764Z,7.11
2018-12-04T20:02:22.873Z,6.47
2018-12-04T20:04:51.864Z,6.45
2018-12-04T20:07:20.942Z,6.26
2018-12-04T20:09:50.100Z,6.39
2018-12-04T20:12:19.152Z,6.37
2018-12-04T20:14:51.190Z,6.39
2018-12-04T20:17:28.419Z,6.31
2018-12-04T20:20:00.452Z,6.25
2018-12-04T20:22:31.759Z,6.18
2018-12-04T20:25:03.951Z,6.37
2018-12-04T20:27:35.303Z,6.06
2018-12-04T20:30:09.310Z,5.86
2018-12-04T20:32:39.074Z,5.84
2018-12-04T20:35:09.613Z,5.91
2018-12-04T20:37:39.666Z,5.86
2018-12-04T20:40:09.453Z,5.95
2018-12-04T20:42:39.416Z,5.90
2018-12-04T20:45:09.261Z,5.85
2018-12-04T20:47:38.736Z,5.86
2018-12-04T20:50:09.357Z,5.74
2018-12-04T20:52:39.269Z,6.09
2018-12-04T20:55:09.313Z,6.05
2018-12-04T20:57:38.517Z,6.06
2018-12-04T21:00:12.827Z,6.10
2018-12-04T21:02:43.327Z,5.99
2018-12-04T21:05:15.142Z,5.82
2018-12-04T21:07:47.086Z,5.70
2018-12-04T21:10:17.326Z,5.80
2018-12-04T21:12:48.837Z,5.88
2018-12-04T21:15:18.932Z,5.76
2018-12-04T21:17:49.794Z,5.81
2018-12-04T21:20:19.951Z,5.86
2018-12-04T21:22:51.204Z,5.88
2018-12-04T21:25:22.318Z,5.94
2018-12-04T21:27:59.019Z,5.90
2018-12-04T21:30:33.222Z,6.17
2018-12-04T21:33:07.592Z,6.20
2018-12-04T21:35:44.282Z,6.22
2018-12-04T21:38:24.118Z,6.20
2018-12-04T21:41:06.064Z,6.20
2018-12-04T21:43:40.553Z,6.26
2018-12-04T21:46:18.004Z,6.51
2018-12-04T21:48:48.301Z,5.87
2018-12-04T21:51:18.690Z,5.87
2018-12-04T21:53:48.420Z,5.67
2018-12-04T21:56:19.347Z,5.48
2018-12-04T21:58:50.342Z,5.58
2018-12-04T22:01:23.048Z,5.86
2018-12-04T22:03:53.719Z,5.59
2018-12-04T22:06:24.938Z,5.59
2018-12-04T22:08:57.367Z,5.61
2018-12-04T22:11:27.078Z,5.58
2018-12-04T22:13:59.018Z,5.76
2018-12-04T22:16:28.812Z,5.72
2018-12-04T22:18:58.891Z,5.90
2018-12-04T22:21:28.338Z,5.78
2018-12-04T22:23:57.751Z,5.74
2018-12-04T22:26:27.367Z,5.80
2018-12-04T22:28:57.112Z,5.92
2018-12-04T22:31:26.973Z,5.86
2018-12-04T22:33:56.694Z,5.85
2018-12-04T22:36:26.585Z,5.70
2018-12-04T22:38:56.100Z,5.69
2018-12-04T22:41:25.781Z,5.75
2018-12-04T22:43:55.256Z,5.82
2018-12-04T22:46:24.886Z,5.75
2018-12-04T22:48:54.314Z,5.81
2018-12-04T22:51:23.662Z,5.73
2018-12-04T22:53:53.174Z,5.90
2018-12-04T22:56:23.161Z,5.82
2018-12-04T22:58:52.820Z,6.06
2018-12-04T23:01:33.081Z,5.98
2018-12-04T23:04:02.608Z,5.94
2018-12-04T23:06:32.097Z,5.79
2018-12-04T23:09:01.488Z,5.69
2018-12-04T23:11:31.027Z,5.74
2018-12-04T23:14:00.213Z,5.80
2018-12-04T23:16:29.815Z,6.11
2018-12-04T23:18:59.808Z,5.97
2018-12-04T23:21:29.370Z,5.88
2018-12-04T23:23:58.610Z,5.94
2018-12-04T23:26:27.953Z,6.16
2018-12-04T23:28:57.332Z,6.15
2018-12-04T23:31:26.685Z,6.19
2018-12-04T23:33:55.980Z,6.30
2018-12-04T23:36:25.285Z,6.31
2018-12-04T23:38:54.469Z,6.20
2018-12-04T23:41:24.036Z,6.31
2018-12-04T23:43:53.363Z,6.08
2018-12-04T23:46:22.847Z,6.20
2018-12-04T23:48:52.220Z,6.33
2018-12-04T23:51:21.464Z,6.11
2018-12-04T23:53:50.771Z,6.21
2018-12-04T23:56:20.197Z,6.10
2018-12-04T23:58:49.558Z,6.25
